Madrid, NE (69150)

7:10 PM MST on February 13, 2016 (GMT -0700)
Sisco Fertilizer | | Change Station
CLOSE
Current Station
Personal Weather Station
Location: Elsie, NE
Elevation: 3415 ft
Nearby Weather Stations

Elev 3415 ft 40.84 °N, 101.40 °W | Updated 11 seconds ago

Overcast
Overcast
28.4 °F
Feels Like 28 °F
N
0.0
Wind Variable Wind from SSE
Gusts 0.0 mph

Today
High -- | Low -- °F
--% Chance of Precip.
Yesterday
High -- | Low -- °F
Precip. -- in
Pressure 29.91 in
Visibility 7.0 miles
Clouds Scattered Clouds 700 ft
Scattered Clouds 1100 ft
Windchill 28 °F
Dew Point 28 °F
Humidity 97%
Rainfall 0.00 in
Snow Depth Not available.
6:43 AM 5:17 PM
Waxing Crescent, 36% visible
METAR KOGA 140155Z AUTO 18006KT 7SM SCT007 SCT011 00/M02 A2991 RMK AO2 T10051020
Pressure 29.91 in
Visibility 7.0 miles
Clouds Scattered Clouds 700 ft
Scattered Clouds 1100 ft
Windchill 28 °F
Dew Point 28 °F
Humidity 97%
Rainfall 0.00 in
Snow Depth Not available.
6:43 AM 5:17 PM
Waxing Crescent, 36% visible
METAR KOGA 140155Z AUTO 18006KT 7SM SCT007 SCT011 00/M02 A2991 RMK AO2 T10051020

10-Day Weather Forecast

Almanac

Astronomy

Feb. 13, 2016 Rise Set
Actual Time
Civil Twilight
Nautical Twilight
Astronomical Twilight
Moon
Length of Visible Light
Length of Day
Tomorrow will be .
, % of the Moon is Illuminated

Today's Extremes

State Highs State Lows

Community

WunderPhotos

Upload Photos

1,892,725 photos uploaded!

WunderBlog® & News

Nearby

Air Quality

  Air Quality AQ Index Pollutant
Not available.

Snow Depth

Station Depth Elevation

Earthquake Activity

City Distance Mag. Time & Date
Minimum magnitude displayed is 2.5.

Coastal Water Temperatures

Place Temperature

Stations

Nearby Weather Stations

Station Location Temp. Windchill Dew Point Humidity Wind Precip. Elev Updated Type
                   

Watches & Warnings

There are currently no watches in effect.